Time;durP1;ratioP1;P1;durP2;ratioP2;P2;SDS_P1;SDS_P2;PMS_P1;PMS_P2;Temp;Humidity;BMP_temperature;BMP_pressure;BME280_temperature;BME280_humidity;BME280_pressure;Samples;Min_cycle;Max_cycle;Signal;HPM_P1;HPM_P2
2022/04/26 03:36:37;;;;;;;21.60;15.27;;;;;;;12.27;80.08;98473.25;5016572;28;20045;-65
2022/04/26 03:39:02;;;;;;;19.90;14.13;;;;;;;12.28;80.09;98482.94;5017313;28;20084;-64
2022/04/26 03:41:28;;;;;;;20.83;14.20;;;;;;;12.30;79.06;98472.97;5011401;28;20052;-63
2022/04/26 03:43:52;;;;;;;22.50;13.45;;;;;;;12.34;79.75;98482.34;5029735;28;20056;-64
2022/04/26 03:46:17;;;;;;;18.15;13.18;;;;;;;12.34;78.61;98485.84;5013106;28;20053;-63
2022/04/26 03:48:42;;;;;;;22.52;13.80;;;;;;;12.34;78.50;98490.34;5027580;28;20087;-62
2022/04/26 03:51:07;;;;;;;15.77;11.85;;;;;;;12.38;78.42;98491.75;4994405;28;20058;-63
2022/04/26 03:53:33;;;;;;;16.48;12.30;;;;;;;12.42;77.67;98487.78;4993960;28;20073;-63
2022/04/26 03:55:58;;;;;;;16.67;11.77;;;;;;;12.45;77.94;98490.16;4993865;28;20052;-63
2022/04/26 03:58:22;;;;;;;18.67;13.07;;;;;;;12.50;77.33;98487.88;4977267;28;20041;-64
2022/04/26 04:00:47;;;;;;;16.80;11.02;;;;;;;12.59;77.69;98494.16;4977419;28;20555;-64
2022/04/26 04:03:12;;;;;;;16.25;11.65;;;;;;;12.63;76.29;98483.03;4993467;28;20041;-63
2022/04/26 04:05:37;;;;;;;19.00;11.75;;;;;;;12.68;76.43;98488.75;4999542;28;20072;-63
2022/04/26 04:08:02;;;;;;;14.63;11.00;;;;;;;12.73;75.56;98486.47;5015951;28;20107;-63
2022/04/26 04:10:27;;;;;;;15.48;10.27;;;;;;;12.75;75.57;98485.47;5017198;28;20087;-63
2022/04/26 04:12:52;;;;;;;12.30;9.73;;;;;;;12.72;74.91;98482.13;5015344;28;20041;-63
2022/04/26 04:15:17;;;;;;;13.13;10.07;;;;;;;12.61;74.39;98485.00;5016952;28;20107;-63
2022/04/26 04:17:42;;;;;;;12.35;9.15;;;;;;;12.58;74.69;98495.16;5016736;28;20103;-64
2022/04/26 04:20:08;;;;;;;13.20;9.98;;;;;;;12.81;75.86;98487.53;5015897;28;20047;-64
2022/04/26 04:22:33;;;;;;;10.95;8.80;;;;;;;13.18;74.60;98480.25;4988837;28;20029;-65
2022/04/26 04:24:58;;;;;;;12.38;8.70;;;;;;;13.66;72.88;98476.22;5015278;28;20048;-64
2022/04/26 04:27:23;;;;;;;15.60;9.70;;;;;;;14.16;70.24;98477.19;4982023;28;20052;-65
2022/04/26 04:29:48;;;;;;;17.58;9.82;;;;;;;14.56;68.48;98480.22;5016623;28;20093;-63
2022/04/26 04:32:13;;;;;;;15.80;10.02;;;;;;;15.00;67.72;98481.69;5016607;28;20527;-64
2022/04/26 04:34:38;;;;;;;13.13;9.15;;;;;;;15.47;66.00;98483.69;4998302;28;20044;-64
2022/04/26 04:37:03;;;;;;;13.88;8.73;;;;;;;15.96;64.02;98492.56;5016037;28;20052;-63
2022/04/26 04:39:28;;;;;;;9.65;7.68;;;;;;;16.45;63.28;98495.09;5015254;28;20041;-63
2022/04/26 04:41:53;;;;;;;11.18;8.45;;;;;;;16.98;62.35;98495.16;5016240;28;20041;-63
2022/04/26 04:44:18;;;;;;;10.07;7.38;;;;;;;17.68;59.74;98489.59;5015204;28;20040;-64
2022/04/26 04:46:44;;;;;;;9.68;7.75;;;;;;;17.94;58.98;98482.94;5015806;28;20428;-62
2022/04/26 04:49:09;;;;;;;9.20;7.45;;;;;;;17.74;58.76;98480.75;5016377;28;20087;-62
2022/04/26 04:51:34;;;;;;;10.00;7.78;;;;;;;17.36;59.26;98479.91;5001977;28;20141;-63
2022/04/26 04:53:58;;;;;;;12.05;8.35;;;;;;;17.04;59.75;98488.25;5017656;28;20044;-63
2022/04/26 04:56:26;;;;;;;12.80;9.55;;;;;;;16.79;60.27;98490.25;5035708;28;20041;-63
2022/04/26 04:58:52;;;;;;;12.32;9.23;;;;;;;16.54;60.42;98480.59;5035737;28;20060;-64
2022/04/26 05:01:16;;;;;;;12.30;9.00;;;;;;;16.38;60.89;98472.56;5017849;28;20384;-64
2022/04/26 05:03:41;;;;;;;13.77;9.52;;;;;;;16.33;61.35;98473.94;5035542;28;20364;-63
2022/04/26 05:06:06;;;;;;;12.32;9.10;;;;;;;16.62;61.63;98476.03;5034395;28;20071;-63
2022/04/26 05:08:31;;;;;;;13.15;9.20;;;;;;;17.10;60.51;98462.44;5000720;28;20044;-68
2022/04/26 05:10:58;;;;;;;14.25;9.23;;;;;;;17.38;58.87;98458.19;5018980;28;20495;-65
2022/04/26 05:13:23;;;;;;;11.57;8.82;;;;;;;17.89;57.45;98461.09;5036926;28;20529;-64
2022/04/26 05:15:47;;;;;;;12.20;9.00;;;;;;;18.75;56.40;98460.38;5020074;28;20106;-64
2022/04/26 05:18:12;;;;;;;12.20;9.00;;;;;;;19.49;54.51;98458.25;5041711;28;20047;-64
2022/04/26 05:20:38;;;;;;;11.23;8.48;;;;;;;19.98;52.09;98471.72;5023407;28;20133;-62
2022/04/26 05:25:45;;;;;;;10.63;9.43;;;;;;;20.24;49.92;98458.34;5037976;28;20052;-64
2022/04/26 05:28:11;;;;;;;12.93;9.32;;;;;;;20.08;49.40;98457.84;5038327;28;20102;-63
2022/04/26 05:30:36;;;;;;;13.00;8.57;;;;;;;19.74;49.61;98467.63;5017811;28;20044;-64
2022/04/26 05:33:01;;;;;;;12.93;8.80;;;;;;;19.61;49.98;98456.69;5034999;28;20043;-64
2022/04/26 05:35:26;;;;;;;17.40;8.50;;;;;;;19.98;49.87;98458.19;5035641;28;20044;-63
2022/04/26 05:37:51;;;;;;;11.48;8.48;;;;;;;20.63;48.63;98452.34;5034925;28;20044;-64
2022/04/26 05:40:16;;;;;;;13.00;9.07;;;;;;;21.41;47.00;98443.78;5001072;28;20040;-63
2022/04/26 05:42:41;;;;;;;11.80;9.32;;;;;;;22.23;44.50;98448.72;5001029;28;20524;-64
2022/04/26 05:45:06;;;;;;;13.63;8.70;;;;;;;22.46;43.84;98455.31;5035443;28;20090;-64
2022/04/26 05:47:31;;;;;;;11.05;8.50;;;;;;;22.01;44.18;98456.28;5017349;28;20112;-64
2022/04/26 05:49:56;;;;;;;10.77;8.70;;;;;;;22.04;43.92;98453.97;5035374;28;20503;-64
2022/04/26 05:52:24;;;;;;;12.30;9.02;;;;;;;22.58;43.13;98450.03;5035471;28;20511;-65
2022/04/26 05:54:49;;;;;;;11.07;8.52;;;;;;;23.33;41.67;98458.47;5036517;28;20098;-64
2022/04/26 05:57:13;;;;;;;11.23;8.68;;;;;;;24.06;39.55;98453.25;5035662;28;20052;-64
2022/04/26 05:59:38;;;;;;;11.77;8.60;;;;;;;24.70;38.35;98455.50;5036082;28;20040;-64
2022/04/26 06:02:03;;;;;;;15.15;8.70;;;;;;;25.64;37.27;98453.97;5035729;28;20044;-63
2022/04/26 06:04:27;;;;;;;15.00;9.32;;;;;;;26.38;33.92;98458.75;5034149;28;20067;-63
2022/04/26 06:06:53;;;;;;;11.13;9.07;;;;;;;25.95;34.46;98459.13;5034769;28;20052;-63
2022/04/26 06:09:17;;;;;;;14.02;8.30;;;;;;;25.29;35.53;98457.41;5035142;28;20051;-68
2022/04/26 06:11:43;;;;;;;13.55;9.00;;;;;;;25.06;35.93;98460.06;5034941;28;20056;-65
2022/04/26 06:14:08;;;;;;;9.95;8.32;;;;;;;24.27;36.72;98460.22;5034693;28;20040;-64
2022/04/26 06:16:33;;;;;;;8.77;6.63;;;;;;;24.38;36.85;98454.00;5016573;28;20036;-65
2022/04/26 06:18:58;;;;;;;8.57;7.30;;;;;;;25.10;35.06;98457.72;5034864;28;20043;-64
2022/04/26 06:21:23;;;;;;;10.65;8.05;;;;;;;26.08;33.58;98460.75;5034961;28;20450;-63
2022/04/26 06:23:48;;;;;;;10.25;8.52;;;;;;;26.69;32.48;98457.50;5033914;28;20441;-64
2022/04/26 06:26:13;;;;;;;12.50;7.63;;;;;;;27.51;31.52;98465.38;5034935;28;20051;-64
2022/04/26 06:28:38;;;;;;;9.07;7.10;;;;;;;28.56;30.08;98474.75;5035838;28;20108;-63
2022/04/26 06:31:03;;;;;;;9.73;7.63;;;;;;;29.49;28.60;98473.66;5018197;28;20143;-65
2022/04/26 06:33:27;;;;;;;11.77;7.88;;;;;;;30.25;27.37;98474.28;5036234;28;20090;-72
2022/04/26 06:35:52;;;;;;;8.75;7.65;;;;;;;30.50;27.09;98477.22;5017370;28;20040;-71
2022/04/26 06:38:17;;;;;;;10.57;7.72;;;;;;;30.74;26.19;98480.38;5036299;28;20040;-71
2022/04/26 06:40:42;;;;;;;10.73;7.57;;;;;;;30.85;26.22;98486.75;5021556;28;20044;-71
2022/04/26 06:43:07;;;;;;;9.27;6.55;;;;;;;31.12;26.61;98483.88;5037943;28;20431;-71
2022/04/26 06:45:32;;;;;;;10.35;7.75;;;;;;;31.42;26.85;98485.88;5038623;28;20536;-71
2022/04/26 06:47:58;;;;;;;15.73;7.03;;;;;;;31.22;26.74;98487.47;5039944;28;20402;-71
2022/04/26 06:50:23;;;;;;;8.35;6.90;;;;;;;30.98;27.24;98489.84;5042422;28;20147;-72
2022/04/26 06:52:50;;;;;;;10.02;7.05;;;;;;;31.33;26.32;98480.91;5021674;28;20049;-71
2022/04/26 06:55:15;;;;;;;10.68;8.07;;;;;;;31.13;25.83;98480.84;5003684;28;20042;-71
2022/04/26 06:57:40;;;;;;;11.55;8.10;;;;;;;31.16;25.55;98480.28;5038451;28;20052;-72
2022/04/26 07:00:06;;;;;;;9.30;7.38;;;;;;;31.88;24.73;98486.78;5020401;28;20043;-72
2022/04/26 07:02:30;;;;;;;8.07;7.00;;;;;;;32.03;24.35;98495.88;5038777;28;20119;-72
2022/04/26 07:04:56;;;;;;;10.95;7.53;;;;;;;30.54;25.15;98494.03;5039063;28;20226;-72
2022/04/26 07:07:22;;;;;;;9.88;7.25;;;;;;;29.41;26.16;98496.09;5037895;28;20039;-71
2022/04/26 07:09:46;;;;;;;8.93;7.10;;;;;;;29.36;26.30;98491.34;5038222;28;20036;-72
2022/04/26 07:12:11;;;;;;;7.65;6.22;;;;;;;28.20;27.73;98485.19;5038196;28;20044;-73
2022/04/26 07:14:36;;;;;;;6.75;5.25;;;;;;;26.92;28.45;98481.25;5020491;28;20097;-73
2022/04/26 07:17:02;;;;;;;7.47;5.50;;;;;;;26.61;29.19;98487.13;5037911;28;20044;-70
2022/04/26 07:19:27;;;;;;;8.60;5.85;;;;;;;28.26;28.12;98492.41;5037937;28;20079;-72
2022/04/26 07:21:51;;;;;;;7.40;5.28;;;;;;;28.96;25.77;98488.16;5037895;28;20040;-72
2022/04/26 07:24:16;;;;;;;7.50;5.30;;;;;;;27.71;26.09;98495.88;5037066;28;20105;-72
2022/04/26 07:26:42;;;;;;;7.95;5.30;;;;;;;27.63;26.63;98488.09;5038679;28;20051;-73
2022/04/26 07:29:08;;;;;;;6.65;4.72;;;;;;;28.66;25.13;98485.84;5039011;28;20048;-72
2022/04/26 07:31:33;;;;;;;7.60;4.55;;;;;;;30.45;23.35;98485.44;5038190;28;20067;-72
2022/04/26 07:36:41;;;;;;;5.83;5.23;;;;;;;34.07;20.25;98493.94;5037479;28;20119;-73
2022/04/26 07:39:06;;;;;;;7.85;5.90;;;;;;;35.08;20.42;98496.75;5019195;28;20362;-72
2022/04/26 07:41:31;;;;;;;8.93;6.03;;;;;;;35.65;18.97;98485.44;5037666;28;20036;-71
2022/04/26 07:43:55;;;;;;;7.60;5.80;;;;;;;36.18;18.17;98490.69;5020166;28;20441;-73
2022/04/26 07:46:20;;;;;;;7.30;5.90;;;;;;;36.69;17.58;98492.56;5016104;28;20056;-71
2022/04/26 07:48:45;;;;;;;18.95;7.95;;;;;;;36.40;17.78;98492.00;4999949;28;20044;-72
2022/04/26 07:51:11;;;;;;;8.18;6.20;;;;;;;35.77;18.38;98487.78;4983044;28;20060;-71
2022/04/26 07:53:36;;;;;;;14.55;6.75;;;;;;;34.93;18.99;98492.22;5000188;28;20055;-72
2022/04/26 07:56:00;;;;;;;7.80;5.43;;;;;;;33.29;20.32;98491.16;5017814;28;20128;-72
2022/04/26 07:58:25;;;;;;;6.75;5.72;;;;;;;31.53;21.75;98484.78;5020989;28;20684;-73
2022/04/26 08:00:50;;;;;;;6.65;5.50;;;;;;;29.91;23.37;98477.31;5005059;28;20044;-71
2022/04/26 08:03:16;;;;;;;12.57;5.45;;;;;;;28.98;24.84;98481.34;5022470;28;20054;-71
2022/04/26 08:05:41;;;;;;;7.78;5.13;;;;;;;29.07;24.82;98479.78;5023712;28;20056;-71
2022/04/26 08:08:06;;;;;;;7.07;5.80;;;;;;;28.57;24.81;98484.59;5021044;28;20040;-73
2022/04/26 08:10:31;;;;;;;8.05;6.38;;;;;;;27.91;25.88;98475.38;5001409;28;20556;-72
2022/04/26 08:12:56;;;;;;;9.10;5.97;;;;;;;26.59;27.42;98483.78;5017773;28;20052;-72
2022/04/26 08:15:21;;;;;;;10.93;5.30;;;;;;;25.46;28.76;98479.41;5017698;28;20041;-71
2022/04/26 08:17:48;;;;;;;7.50;5.45;;;;;;;24.09;30.30;98482.75;5018207;28;20057;-72
2022/04/26 08:20:12;;;;;;;6.07;5.00;;;;;;;23.32;31.77;98468.50;5017815;28;20045;-72
2022/04/26 08:22:37;;;;;;;7.00;5.38;;;;;;;23.08;32.25;98467.41;5018208;28;20209;-73
2022/04/26 08:27:52;;;;;;;6.83;5.37;;;;;;;24.44;30.87;98474.88;5017151;28;20130;-73
2022/04/26 08:30:17;;;;;;;7.13;4.85;;;;;;;25.53;29.42;98474.69;5020021;28;20049;-71
2022/04/26 08:32:44;;;;;;;6.55;5.28;;;;;;;26.17;28.08;98481.22;5016855;28;20040;-72
2022/04/26 08:35:12;;;;;;;8.60;5.70;;;;;;;27.10;27.13;98480.22;5016245;28;20052;-71
2022/04/26 08:37:38;;;;;;;6.88;4.97;;;;;;;28.26;25.42;98478.69;5017371;28;20037;-73
2022/04/26 08:40:05;;;;;;;8.00;5.65;;;;;;;29.53;24.55;98478.38;5017717;28;20135;-73
2022/04/26 08:42:44;;;;;;;6.25;4.63;;;;;;;30.73;22.79;98475.16;4999563;28;20037;-71
2022/04/26 08:45:13;;;;;;;6.05;4.88;;;;;;;31.49;22.00;98480.94;5005536;28;20067;-71
2022/04/26 08:53:21;;;;;;;6.22;5.20;;;;;;;34.01;19.98;98475.72;4975558;28;20057;-73
2022/04/26 08:55:51;;;;;;;9.27;5.88;;;;;;;34.07;18.83;98468.22;4975296;28;20516;-71
2022/04/26 08:58:18;;;;;;;8.95;5.80;;;;;;;34.14;18.90;98477.00;4974897;28;20046;-71
2022/04/26 09:01:19;;;;;;;8.40;5.68;;;;;;;33.94;18.50;98480.78;4974883;28;20496;-71
2022/04/26 09:03:57;;;;;;;9.20;5.50;;;;;;;34.56;19.39;98476.28;4958436;28;20049;-71
2022/04/26 09:06:34;;;;;;;6.93;6.03;;;;;;;34.72;18.93;98465.88;4973977;28;20087;-71
2022/04/26 09:09:09;;;;;;;5.93;5.32;;;;;;;35.17;18.13;98464.50;4974162;28;20037;-72
2022/04/26 09:11:35;;;;;;;7.30;5.80;;;;;;;34.35;18.45;98455.50;4973928;28;20062;-72
2022/04/26 09:14:05;;;;;;;8.65;5.75;;;;;;;33.61;18.72;98470.50;4973735;28;20045;-72
2022/04/26 09:16:30;;;;;;;6.30;5.43;;;;;;;32.26;19.92;98455.91;4974566;28;20065;-72
2022/04/26 09:19:02;;;;;;;7.70;5.80;;;;;;;30.95;21.04;98460.09;4974074;28;20034;-71
2022/04/26 09:21:29;;;;;;;8.75;5.65;;;;;;;30.30;22.35;98466.91;4974312;28;20056;-71
2022/04/26 09:24:02;;;;;;;11.50;5.45;;;;;;;29.59;22.80;98462.75;4941549;28;20050;-73
2022/04/26 09:26:34;;;;;;;9.00;5.93;;;;;;;29.12;23.55;98466.13;4973856;28;20049;-71
2022/04/26 09:28:58;;;;;;;7.90;4.93;;;;;;;28.59;23.89;98455.03;4978050;28;20120;-72
2022/04/26 09:31:26;;;;;;;6.68;4.93;;;;;;;28.27;24.80;98465.81;5035414;28;20135;-71
2022/04/26 09:34:03;;;;;;;5.97;4.47;;;;;;;28.18;24.54;98462.69;5035457;28;20131;-72
2022/04/26 09:36:35;;;;;;;5.38;4.88;;;;;;;28.21;24.31;98459.47;5035650;28;20105;-70
2022/04/26 09:39:01;;;;;;;4.95;4.40;;;;;;;28.34;24.03;98459.06;5018719;28;20071;-74
2022/04/26 09:41:29;;;;;;;5.47;4.82;;;;;;;28.57;23.49;98457.19;5039437;28;20074;-72
2022/04/26 09:44:04;;;;;;;5.82;5.28;;;;;;;29.23;23.17;98458.84;5037197;28;20100;-73
2022/04/26 09:46:55;;;;;;;6.25;4.68;;;;;;;29.89;22.84;98452.06;5018043;28;20053;-72
2022/04/26 09:49:22;;;;;;;7.13;5.32;;;;;;;29.67;22.71;98456.00;5014507;28;20056;-72
2022/04/26 09:51:48;;;;;;;5.68;4.75;;;;;;;30.02;22.65;98445.31;5017699;28;20049;-73
2022/04/26 09:54:13;;;;;;;5.13;4.50;;;;;;;29.93;22.97;98450.41;4984741;28;20051;-72
2022/04/26 09:56:39;;;;;;;6.00;4.20;;;;;;;29.09;23.15;98460.34;4999984;28;20041;-73
2022/04/26 09:59:04;;;;;;;5.88;4.50;;;;;;;28.09;24.38;98448.56;5000181;28;20435;-64
2022/04/26 10:01:38;;;;;;;5.85;5.22;;;;;;;27.53;25.03;98460.50;4997473;28;20041;-65
2022/04/26 10:04:04;;;;;;;7.25;4.53;;;;;;;26.99;26.41;98460.03;5015247;28;20124;-63
2022/04/26 10:06:41;;;;;;;9.30;5.45;;;;;;;25.98;27.38;98460.53;5015227;28;20135;-64
2022/04/26 10:09:10;;;;;;;7.18;5.90;;;;;;;24.91;28.43;98459.63;5014205;28;20408;-64
2022/04/26 10:11:36;;;;;;;5.63;4.80;;;;;;;24.01;29.52;98472.16;5015376;28;20072;-64
2022/04/26 10:14:06;;;;;;;8.07;5.07;;;;;;;23.56;30.35;98463.34;5015395;28;20041;-65
2022/04/26 10:16:32;;;;;;;8.20;5.60;;;;;;;22.72;31.32;98465.25;5015459;28;20071;-64
2022/04/26 10:19:07;;;;;;;6.70;4.97;;;;;;;22.41;32.41;98462.44;4999767;28;20574;-65
2022/04/26 10:21:31;;;;;;;7.30;4.50;;;;;;;21.70;32.45;98454.19;5021595;28;20067;-67
2022/04/26 10:24:03;;;;;;;6.35;4.80;;;;;;;21.29;33.48;98462.53;5010977;28;20032;-64
2022/04/26 10:26:29;;;;;;;6.38;4.43;;;;;;;21.03;34.28;98469.53;5027815;28;20044;-65
2022/04/26 10:28:59;;;;;;;6.75;4.70;;;;;;;21.14;34.86;98467.25;5030085;28;20043;-65
2022/04/26 10:31:39;;;;;;;8.68;4.72;;;;;;;21.07;34.37;98466.41;4993973;28;20044;-63
2022/04/26 10:34:31;;;;;;;7.72;4.65;;;;;;;21.05;34.57;98472.03;5029588;28;20052;-63
2022/04/26 10:37:02;;;;;;;7.63;4.70;;;;;;;20.83;35.18;98467.81;5031417;28;20136;-64
2022/04/26 10:39:30;;;;;;;4.97;4.47;;;;;;;20.63;35.60;98474.00;5009654;28;20044;-64
2022/04/26 10:41:55;;;;;;;10.27;5.03;;;;;;;20.66;35.75;98473.56;5007530;28;20041;-64
2022/04/26 10:44:22;;;;;;;7.80;4.35;;;;;;;20.84;35.89;98464.91;5021251;28;20207;-64
2022/04/26 10:47:07;;;;;;;6.38;4.45;;;;;;;21.19;35.04;98472.94;5005061;28;20049;-64
2022/04/26 10:49:32;;;;;;;8.77;4.60;;;;;;;20.96;35.61;98474.09;4991700;28;20118;-63
2022/04/26 10:52:23;;;;;;;5.55;4.32;;;;;;;20.90;35.38;98469.50;5022337;28;20049;-66
2022/04/26 10:54:48;;;;;;;6.03;4.22;;;;;;;21.16;35.05;98470.59;4986454;28;20045;-65
2022/04/26 10:57:19;;;;;;;5.53;4.50;;;;;;;21.35;35.30;98473.38;5008247;28;20041;-64
2022/04/26 10:59:49;;;;;;;8.35;4.65;;;;;;;21.48;35.33;98477.13;4987357;28;20052;-64
2022/04/26 11:02:19;;;;;;;6.38;4.65;;;;;;;21.54;35.02;98473.63;5024598;28;20037;-64
2022/04/26 11:04:45;;;;;;;8.88;5.35;;;;;;;21.31;35.29;98474.84;5025380;28;20464;-64
2022/04/26 11:07:13;;;;;;;7.03;4.88;;;;;;;21.25;34.95;98472.94;5023446;28;20094;-63
2022/04/26 11:09:53;;;;;;;6.28;4.68;;;;;;;21.05;35.35;98474.75;5004692;28;20044;-66
2022/04/26 11:12:23;;;;;;;5.45;4.60;;;;;;;20.87;35.87;98475.34;5017786;28;20041;-65
2022/04/26 11:14:50;;;;;;;9.57;4.85;;;;;;;20.80;36.08;98485.28;5019618;28;20056;-66
2022/04/26 11:17:16;;;;;;;6.57;4.40;;;;;;;20.73;35.87;98484.44;5021739;28;20040;-65
2022/04/26 11:19:53;;;;;;;6.38;4.80;;;;;;;20.94;35.62;98475.34;5019367;28;20049;-64
2022/04/26 11:22:18;;;;;;;7.57;4.93;;;;;;;20.95;35.21;98477.03;5021309;28;20036;-64
2022/04/26 11:30:35;;;;;;;6.25;4.60;;;;;;;20.39;35.89;98485.34;5018599;28;20106;-67
2022/04/26 11:33:02;;;;;;;7.57;5.25;;;;;;;20.15;36.50;98477.66;4985774;28;20122;-68
2022/04/26 11:35:28;;;;;;;8.90;4.50;;;;;;;19.86;36.32;98470.63;5003783;28;20060;-69
2022/04/26 11:37:59;;;;;;;6.18;4.85;;;;;;;19.76;36.77;98487.16;5020862;28;20041;-66
2022/04/26 11:40:32;;;;;;;5.97;4.40;;;;;;;19.54;37.06;98482.81;4987135;28;20048;-66
2022/04/26 11:42:58;;;;;;;4.45;3.63;;;;;;;19.32;37.37;98470.31;5019299;28;20036;-67
2022/04/26 11:45:28;;;;;;;8.45;4.25;;;;;;;19.24;37.60;98468.59;5020591;28;20530;-66
2022/04/26 11:47:53;;;;;;;11.00;5.47;;;;;;;19.03;37.97;98469.44;5001686;28;20040;-67
2022/04/26 11:50:25;;;;;;;7.93;4.43;;;;;;;18.98;38.72;98471.84;5004086;28;20099;-67
2022/04/26 11:52:52;;;;;;;5.60;4.15;;;;;;;18.95;39.06;98466.84;5020940;28;20056;-67
2022/04/26 11:55:28;;;;;;;5.43;4.10;;;;;;;19.12;38.75;98465.56;5019462;28;20504;-65
2022/04/26 11:58:12;;;;;;;5.95;4.30;;;;;;;19.28;38.34;98469.88;5019798;28;20093;-67
2022/04/26 12:00:53;;;;;;;5.45;4.40;;;;;;;19.35;38.16;98465.38;5018748;28;20182;-67
2022/04/26 12:03:20;;;;;;;7.70;4.20;;;;;;;19.38;37.97;98464.16;5021241;28;20044;-66
2022/04/26 12:05:46;;;;;;;11.27;4.88;;;;;;;19.42;38.04;98473.53;5001822;28;20045;-67
2022/04/26 12:08:12;;;;;;;9.68;4.50;;;;;;;19.39;38.41;98458.56;5019096;28;20033;-68
2022/04/26 12:10:37;;;;;;;7.90;4.65;;;;;;;19.54;37.55;98458.50;5018044;28;20045;-68
2022/04/26 12:13:05;;;;;;;5.22;4.00;;;;;;;19.60;37.67;98465.84;5016514;28;20148;-68
2022/04/26 12:15:31;;;;;;;7.90;4.13;;;;;;;19.69;37.94;98467.34;5017478;28;20131;-67
2022/04/26 12:18:02;;;;;;;6.50;3.83;;;;;;;19.78;37.87;98462.63;5015840;28;20045;-68
2022/04/26 12:20:27;;;;;;;6.47;4.60;;;;;;;19.75;38.03;98465.75;5017282;28;20049;-67
2022/04/26 12:22:52;;;;;;;9.20;5.20;;;;;;;19.79;37.86;98462.44;5001584;28;20055;-69
2022/04/26 12:25:16;;;;;;;6.63;3.95;;;;;;;19.82;37.17;98459.34;4984818;28;20052;-68
2022/04/26 12:27:41;;;;;;;8.13;4.75;;;;;;;19.81;37.46;98468.50;5019107;28;20063;-63
2022/04/26 12:30:10;;;;;;;7.95;4.97;;;;;;;19.71;38.35;98467.16;5020393;28;20076;-64
2022/04/26 12:32:41;;;;;;;9.88;4.80;;;;;;;19.72;37.65;98469.69;5017417;28;20040;-64
2022/04/26 12:35:09;;;;;;;7.85;4.43;;;;;;;19.42;37.50;98463.56;5005365;28;20064;-65
2022/04/26 12:37:34;;;;;;;7.90;3.92;;;;;;;19.36;37.57;98460.81;4997478;28;20110;-64
2022/04/26 12:40:08;;;;;;;6.50;4.10;;;;;;;19.35;38.18;98462.66;4997644;28;20041;-64
2022/04/26 12:42:36;;;;;;;8.27;4.75;;;;;;;19.28;38.20;98471.75;4995919;28;20041;-66
2022/04/26 12:45:05;;;;;;;7.15;4.47;;;;;;;19.16;37.83;98471.44;4984842;28;20563;-64
2022/04/26 12:50:36;;;;;;;9.48;4.35;;;;;;;19.33;37.64;98475.53;5015237;28;20099;-65
2022/04/26 12:53:06;;;;;;;5.68;3.60;;;;;;;19.40;36.82;98472.91;4998468;28;20102;-63
2022/04/26 12:55:40;;;;;;;7.15;3.70;;;;;;;19.54;37.32;98477.41;5016302;28;20181;-64
2022/04/26 12:58:08;;;;;;;6.95;3.70;;;;;;;19.67;36.63;98466.72;5016334;28;20174;-64
2022/04/26 13:00:39;;;;;;;5.10;4.05;;;;;;;19.73;36.17;98471.34;5015002;28;20044;-64
2022/04/26 13:03:07;;;;;;;6.97;3.97;;;;;;;19.64;36.10;98460.88;5015660;28;20047;-64
2022/04/26 13:05:47;;;;;;;5.80;3.80;;;;;;;19.68;35.86;98462.97;4998167;28;20551;-64
2022/04/26 13:08:17;;;;;;;7.22;4.32;;;;;;;19.63;36.23;98464.63;4997885;28;20076;-64
2022/04/26 13:10:43;;;;;;;4.78;3.85;;;;;;;19.51;35.58;98451.63;4998478;28;20051;-64
2022/04/26 13:13:09;;;;;;;5.57;3.40;;;;;;;19.41;35.71;98459.19;4998150;28;20066;-64
2022/04/26 13:15:35;;;;;;;6.13;3.53;;;;;;;19.26;36.02;98460.31;4981892;28;20049;-64
2022/04/26 13:17:59;;;;;;;7.43;3.72;;;;;;;19.17;36.46;98454.19;4981202;28;20136;-63
2022/04/26 13:20:24;;;;;;;6.55;3.90;;;;;;;19.06;36.36;98465.50;5015069;28;20032;-64
2022/04/26 13:22:49;;;;;;;4.53;3.25;;;;;;;19.09;36.81;98457.00;5016690;28;20102;-63
2022/04/26 13:25:14;;;;;;;3.97;3.58;;;;;;;19.08;36.46;98460.72;5015918;28;20064;-68
2022/04/26 13:27:39;;;;;;;6.47;3.80;;;;;;;19.01;36.42;98460.69;5015062;28;20048;-69
2022/04/26 13:30:07;;;;;;;8.63;4.07;;;;;;;19.03;36.67;98458.63;5016509;28;20044;-70
2022/04/26 13:32:32;;;;;;;6.13;3.85;;;;;;;18.93;36.59;98457.28;5015462;28;20440;-69
2022/04/26 13:34:57;;;;;;;4.75;4.28;;;;;;;18.90;36.94;98460.34;4997634;28;20052;-67
2022/04/26 13:37:24;;;;;;;5.28;3.50;;;;;;;18.74;36.73;98461.41;4997871;28;20040;-69
2022/04/26 13:39:50;;;;;;;6.20;3.75;;;;;;;18.45;36.95;98448.78;4998143;28;20043;-69
2022/04/26 13:42:15;;;;;;;5.85;3.95;;;;;;;18.43;37.40;98454.38;4981511;28;20530;-69
2022/04/26 13:44:41;;;;;;;6.25;3.78;;;;;;;18.37;37.58;98457.00;5017661;28;20045;-63
2022/04/26 13:47:06;;;;;;;4.57;3.42;;;;;;;18.30;37.50;98456.03;5018458;28;20053;-63
2022/04/26 13:49:34;;;;;;;6.13;4.10;;;;;;;18.28;37.59;98460.81;5023779;28;20106;-63
2022/04/26 13:51:59;;;;;;;6.20;3.65;;;;;;;18.24;37.90;98459.50;5020611;28;20106;-63
2022/04/26 13:54:27;;;;;;;8.63;3.53;;;;;;;18.29;37.60;98449.81;5007071;28;20036;-64
2022/04/26 13:56:52;;;;;;;5.00;3.28;;;;;;;18.28;37.47;98452.72;5021690;28;20487;-64
2022/04/26 13:59:17;;;;;;;6.43;3.50;;;;;;;18.26;37.89;98461.00;5016741;28;20101;-64
2022/04/26 14:01:41;;;;;;;5.65;3.42;;;;;;;18.31;37.54;98453.16;5018790;28;20044;-63
2022/04/26 14:04:06;;;;;;;4.38;3.25;;;;;;;18.33;37.87;98452.97;5017407;28;20572;-64
2022/04/26 14:06:31;;;;;;;5.60;3.80;;;;;;;18.21;37.82;98452.63;5017079;28;20052;-63
2022/04/26 14:08:55;;;;;;;7.97;3.40;;;;;;;18.15;37.78;98458.78;5016669;28;20064;-63
2022/04/26 14:11:21;;;;;;;9.23;3.53;;;;;;;18.10;38.44;98453.09;5015972;28;20056;-63
2022/04/26 14:21:56;;;;;;;4.75;3.63;;;;;;;17.76;38.61;98457.16;5015763;28;20075;-64
2022/04/26 14:24:20;;;;;;;5.00;3.80;;;;;;;17.71;38.72;98458.75;5016562;28;20072;-64
2022/04/26 14:26:46;;;;;;;5.43;3.63;;;;;;;17.65;38.88;98462.16;5015675;28;20102;-63
2022/04/26 14:29:11;;;;;;;4.50;3.38;;;;;;;17.73;38.75;98459.38;5017682;28;20056;-65
2022/04/26 14:31:36;;;;;;;4.97;3.33;;;;;;;17.70;38.52;98460.59;4984556;28;20076;-63
2022/04/26 14:34:01;;;;;;;4.07;3.25;;;;;;;17.59;38.85;98461.03;4999945;28;20041;-64
2022/04/26 14:36:26;;;;;;;8.25;3.63;;;;;;;17.58;39.17;98459.34;4996821;28;20049;-63
2022/04/26 14:38:50;;;;;;;4.20;3.60;;;;;;;17.59;39.16;98457.47;5012191;28;20081;-64
2022/04/26 14:41:15;;;;;;;6.53;3.28;;;;;;;17.62;38.78;98468.72;4981712;28;20040;-62
2022/04/26 14:43:40;;;;;;;5.13;3.28;;;;;;;17.54;39.03;98462.56;5003990;28;20140;-64
2022/04/26 14:46:05;;;;;;;5.90;3.72;;;;;;;17.43;39.32;98466.53;5016027;28;20053;-65
2022/04/26 14:48:30;;;;;;;4.78;3.45;;;;;;;17.33;39.68;98472.19;5015097;28;20033;-63
2022/04/26 14:50:55;;;;;;;5.18;3.83;;;;;;;17.23;39.93;98471.59;4998094;28;20067;-63
2022/04/26 14:53:20;;;;;;;5.03;3.65;;;;;;;17.18;39.91;98475.84;5015948;28;20041;-65
2022/04/26 14:55:44;;;;;;;5.72;3.55;;;;;;;17.08;39.97;98476.06;5014930;28;20044;-63
2022/04/26 14:58:11;;;;;;;4.65;3.08;;;;;;;16.95;40.62;98487.44;4967919;28;20132;-66
2022/04/26 15:00:36;;;;;;;5.50;3.33;;;;;;;16.90;40.89;98489.84;5019695;28;20041;-66
2022/04/26 15:03:01;;;;;;;4.45;3.13;;;;;;;16.81;40.76;98480.16;5006117;28;20045;-66
2022/04/26 15:05:26;;;;;;;4.30;3.50;;;;;;;16.78;41.31;98482.34;4997365;28;20048;-65
2022/04/26 15:10:34;;;;;;;5.93;3.70;;;;;;;16.61;41.44;98486.94;5000127;28;20060;-64
2022/04/26 15:18:26;;;;;;;7.32;3.72;;;;;;;16.49;42.19;98482.94;4999718;28;20041;-64
2022/04/26 15:20:51;;;;;;;8.20;3.90;;;;;;;16.40;42.22;98486.69;5002205;28;20045;-65
2022/04/26 15:23:17;;;;;;;5.63;3.38;;;;;;;16.33;42.76;98495.47;4982788;28;20125;-64
2022/04/26 15:25:48;;;;;;;5.75;3.78;;;;;;;16.33;42.58;98490.09;5000146;28;20502;-65
2022/04/26 15:28:13;;;;;;;3.88;3.33;;;;;;;16.29;42.87;98490.59;5001147;28;20581;-65
2022/04/26 15:30:45;;;;;;;7.28;3.72;;;;;;;16.31;43.00;98493.97;5000581;28;20507;-65
2022/04/26 15:33:10;;;;;;;4.40;3.08;;;;;;;16.29;43.55;98483.38;4981061;28;20497;-65
2022/04/26 15:35:36;;;;;;;7.95;3.78;;;;;;;16.33;42.92;98492.78;4999086;28;20045;-64
2022/04/26 15:38:01;;;;;;;7.97;3.80;;;;;;;16.24;43.21;98483.06;4998722;28;20579;-64
2022/04/26 15:40:26;;;;;;;4.78;3.40;;;;;;;16.17;43.67;98487.44;4998036;28;20448;-65
2022/04/26 15:42:50;;;;;;;4.88;3.35;;;;;;;16.20;43.56;98489.81;4964247;28;20160;-64
2022/04/26 15:45:16;;;;;;;11.07;4.43;;;;;;;16.16;43.15;98493.84;5000803;28;20049;-64